Time;durP1;ratioP1;P1;durP2;ratioP2;P2;SDS_P1;SDS_P2;PMS_P1;PMS_P2;Temp;Humidity;BMP_temperature;BMP_pressure;BME280_temperature;BME280_humidity;BME280_pressure;Samples;Min_cycle;Max_cycle;Signal;HPM_P1;HPM_P2
2023/06/16 00:01:05;;;;;;;14.48;11.85;;;;;;;;;;4993347;28;20027;-66
2023/06/16 00:03:35;;;;;;;13.18;11.05;;;;;;;;;;4993187;28;20029;-65
2023/06/16 00:06:03;;;;;;;13.07;11.47;;;;;;;;;;4992955;28;20490;-65
2023/06/16 00:08:31;;;;;;;14.38;11.52;;;;;;;;;;4992950;28;20254;-65
2023/06/16 00:10:58;;;;;;;12.77;11.48;;;;;;;;;;4993351;28;20015;-65
2023/06/16 00:13:25;;;;;;;18.08;11.90;;;;;;;;;;4993038;28;20034;-66
2023/06/16 00:15:51;;;;;;;14.90;11.48;;;;;;;;;;4993221;28;20069;-65
2023/06/16 00:18:18;;;;;;;15.35;12.23;;;;;;;;;;4992882;28;20049;-65
2023/06/16 00:20:45;;;;;;;15.05;11.10;;;;;;;;;;4993016;28;20041;-65
2023/06/16 00:23:16;;;;;;;14.93;11.20;;;;;;;;;;4993309;28;20026;-65
2023/06/16 00:25:42;;;;;;;12.32;11.00;;;;;;;;;;4992992;28;20475;-65
2023/06/16 00:28:08;;;;;;;16.13;11.82;;;;;;;;;;4992779;28;20033;-66
2023/06/16 00:30:35;;;;;;;15.50;11.88;;;;;;;;;;4992678;28;20072;-66
2023/06/16 00:33:01;;;;;;;15.20;11.93;;;;;;;;;;4992975;28;20041;-65
2023/06/16 00:35:27;;;;;;;16.77;12.18;;;;;;;;;;4992822;28;20034;-65
2023/06/16 00:37:54;;;;;;;19.30;11.90;;;;;;;;;;4992870;28;20034;-65
2023/06/16 00:40:20;;;;;;;12.95;11.48;;;;;;;;;;4992984;28;20422;-65
2023/06/16 00:42:47;;;;;;;14.00;12.00;;;;;;;;;;4992674;28;20037;-66
2023/06/16 00:45:13;;;;;;;17.23;11.52;;;;;;;;;;4992651;28;20396;-65
2023/06/16 00:47:39;;;;;;;14.68;11.73;;;;;;;;;;4992710;28;20022;-65
2023/06/16 00:50:06;;;;;;;13.60;11.45;;;;;;;;;;4992972;28;20043;-65
2023/06/16 00:52:35;;;;;;;13.52;11.52;;;;;;;;;;4992558;28;20034;-65
2023/06/16 00:55:01;;;;;;;15.15;12.07;;;;;;;;;;4992904;28;20030;-65
2023/06/16 00:57:29;;;;;;;14.82;12.27;;;;;;;;;;4992238;28;20022;-65
2023/06/16 00:59:55;;;;;;;12.60;10.45;;;;;;;;;;4992561;28;20031;-65
2023/06/16 01:02:22;;;;;;;14.65;12.10;;;;;;;;;;4992538;28;20023;-65
2023/06/16 01:04:51;;;;;;;13.73;11.88;;;;;;;;;;4992468;28;20045;-65
2023/06/16 01:07:33;;;;;;;13.38;11.57;;;;;;;;;;4994077;28;20026;-65
2023/06/16 01:10:18;;;;;;;20.50;12.10;;;;;;;;;;4996609;28;20026;-65
2023/06/16 01:13:20;;;;;;;15.45;12.30;;;;;;;;;;4995904;28;20030;-65
2023/06/16 01:15:46;;;;;;;16.55;11.95;;;;;;;;;;4936169;29;20030;-65
2023/06/16 01:18:14;;;;;;;16.30;12.13;;;;;;;;;;4936021;29;20047;-65
2023/06/16 01:20:48;;;;;;;15.95;12.80;;;;;;;;;;4936119;29;20485;-65
2023/06/16 01:23:14;;;;;;;14.38;12.02;;;;;;;;;;4935938;29;20509;-65
2023/06/16 01:25:43;;;;;;;13.90;11.18;;;;;;;;;;4936036;29;20038;-65
2023/06/16 01:28:10;;;;;;;16.25;11.98;;;;;;;;;;4936126;29;20135;-65
2023/06/16 01:30:42;;;;;;;15.45;13.35;;;;;;;;;;4935912;29;20436;-65
2023/06/16 01:33:10;;;;;;;17.48;13.00;;;;;;;;;;4935909;29;20028;-65
2023/06/16 01:35:38;;;;;;;16.15;13.35;;;;;;;;;;4936276;29;20048;-65
2023/06/16 01:38:04;;;;;;;16.15;13.30;;;;;;;;;;4935681;29;20113;-65
2023/06/16 01:40:31;;;;;;;20.52;12.70;;;;;;;;;;4935395;29;20046;-65
2023/06/16 01:42:58;;;;;;;23.95;13.40;;;;;;;;;;4935960;29;20130;-65
2023/06/16 01:45:25;;;;;;;16.95;13.85;;;;;;;;;;4935683;29;20031;-65
2023/06/16 01:47:51;;;;;;;16.92;13.30;;;;;;;;;;4935653;29;20031;-65
2023/06/16 01:50:18;;;;;;;18.17;13.50;;;;;;;;;;4980155;28;20046;-65
2023/06/16 01:52:44;;;;;;;15.70;12.80;;;;;;;;;;4995457;28;20058;-65
2023/06/16 01:55:11;;;;;;;14.68;13.07;;;;;;;;;;4995167;28;20018;-65
2023/06/16 01:57:37;;;;;;;16.33;13.05;;;;;;;;;;4995511;28;20026;-65
2023/06/16 02:00:15;;;;;;;13.60;12.05;;;;;;;;;;4995696;28;20061;-65
2023/06/16 02:02:46;;;;;;;14.98;12.20;;;;;;;;;;4995329;28;20018;-65
2023/06/16 02:05:13;;;;;;;15.02;12.52;;;;;;;;;;4995542;28;20030;-66
2023/06/16 02:07:41;;;;;;;16.42;13.32;;;;;;;;;;4995265;28;20491;-65
2023/06/16 02:10:08;;;;;;;21.45;13.88;;;;;;;;;;4995187;28;20041;-65
2023/06/16 02:12:34;;;;;;;18.33;13.68;;;;;;;;;;4995506;28;20018;-65
2023/06/16 02:15:00;;;;;;;15.18;12.20;;;;;;;;;;4995489;28;20026;-65
2023/06/16 02:17:28;;;;;;;16.10;13.32;;;;;;;;;;4995186;28;20030;-65
2023/06/16 02:19:55;;;;;;;16.25;12.57;;;;;;;;;;4994275;28;20406;-65
2023/06/16 02:22:21;;;;;;;14.23;12.13;;;;;;;;;;4995408;28;20027;-65
2023/06/16 02:24:48;;;;;;;16.25;13.40;;;;;;;;;;4994633;28;20022;-65
2023/06/16 02:27:14;;;;;;;16.92;12.98;;;;;;;;;;4995155;28;20064;-65
2023/06/16 02:29:41;;;;;;;15.48;13.68;;;;;;;;;;4995163;28;20022;-65
2023/06/16 02:32:07;;;;;;;19.25;13.32;;;;;;;;;;4994952;28;20033;-65
2023/06/16 02:34:34;;;;;;;16.55;12.75;;;;;;;;;;4994796;28;20472;-65
2023/06/16 02:37:01;;;;;;;15.73;13.43;;;;;;;;;;4994692;28;20068;-65
2023/06/16 02:39:27;;;;;;;15.90;13.85;;;;;;;;;;4994360;28;20037;-65
2023/06/16 02:41:54;;;;;;;15.13;13.48;;;;;;;;;;4994736;28;20476;-65
2023/06/16 02:44:20;;;;;;;19.95;13.45;;;;;;;;;;4994894;28;20030;-65
2023/06/16 02:46:46;;;;;;;15.40;13.32;;;;;;;;;;4994494;28;20019;-65
2023/06/16 02:49:13;;;;;;;19.83;13.18;;;;;;;;;;4994442;28;20026;-65
2023/06/16 02:51:40;;;;;;;16.27;13.55;;;;;;;;;;4994466;28;20517;-65
2023/06/16 02:54:06;;;;;;;18.42;14.20;;;;;;;;;;4994000;28;20026;-65
2023/06/16 02:56:32;;;;;;;22.23;13.77;;;;;;;;;;4994236;28;20022;-65
2023/06/16 02:58:59;;;;;;;17.65;13.27;;;;;;;;;;4994417;28;20395;-65
2023/06/16 03:01:28;;;;;;;17.58;13.50;;;;;;;;;;4994398;28;20029;-65
2023/06/16 03:03:56;;;;;;;19.67;14.05;;;;;;;;;;4994187;28;20014;-65
2023/06/16 03:06:23;;;;;;;19.70;14.43;;;;;;;;;;4994536;28;20040;-65
2023/06/16 03:08:50;;;;;;;17.88;13.32;;;;;;;;;;4993702;28;20022;-65
2023/06/16 03:11:16;;;;;;;18.30;13.65;;;;;;;;;;4993974;28;20018;-65
2023/06/16 03:13:42;;;;;;;15.82;13.77;;;;;;;;;;4994064;28;20026;-65
2023/06/16 03:16:09;;;;;;;14.82;12.77;;;;;;;;;;4994218;28;20053;-65
2023/06/16 03:18:35;;;;;;;16.02;13.73;;;;;;;;;;4993767;28;20022;-65
2023/06/16 03:21:02;;;;;;;21.33;14.23;;;;;;;;;;4993903;28;20104;-65
2023/06/16 03:23:28;;;;;;;17.88;14.18;;;;;;;;;;4993424;28;20391;-65
2023/06/16 03:25:56;;;;;;;19.63;13.55;;;;;;;;;;4993894;28;20022;-65
2023/06/16 03:28:23;;;;;;;18.80;13.05;;;;;;;;;;4993924;28;20031;-65
2023/06/16 03:30:52;;;;;;;15.18;13.00;;;;;;;;;;4992725;28;20033;-65
2023/06/16 03:33:19;;;;;;;14.40;12.90;;;;;;;;;;4993776;28;20023;-65
2023/06/16 03:35:46;;;;;;;16.85;13.77;;;;;;;;;;4993308;28;20030;-65
2023/06/16 03:38:12;;;;;;;18.63;12.80;;;;;;;;;;4993602;28;20037;-64
2023/06/16 03:40:38;;;;;;;17.33;12.85;;;;;;;;;;4993468;28;20421;-65
2023/06/16 03:43:05;;;;;;;16.42;13.07;;;;;;;;;;4993929;28;20021;-65
2023/06/16 03:45:31;;;;;;;22.67;13.77;;;;;;;;;;4993385;28;20035;-65
2023/06/16 03:47:57;;;;;;;17.55;13.07;;;;;;;;;;4993277;28;20022;-65
2023/06/16 03:50:24;;;;;;;18.20;12.38;;;;;;;;;;4993236;28;20030;-65
2023/06/16 03:52:51;;;;;;;15.80;12.75;;;;;;;;;;4993205;28;20400;-65
2023/06/16 03:55:19;;;;;;;17.55;13.48;;;;;;;;;;4993487;28;20102;-65
2023/06/16 03:57:45;;;;;;;19.13;12.50;;;;;;;;;;4993243;28;20045;-65
2023/06/16 04:00:12;;;;;;;18.05;13.15;;;;;;;;;;4993379;28;20053;-65
2023/06/16 04:02:38;;;;;;;17.92;12.90;;;;;;;;;;4993274;28;20380;-65
2023/06/16 04:05:04;;;;;;;16.25;12.73;;;;;;;;;;4992828;28;20460;-65
2023/06/16 04:07:31;;;;;;;17.58;13.20;;;;;;;;;;4993129;28;20030;-65
2023/06/16 04:09:58;;;;;;;14.73;12.65;;;;;;;;;;4993251;28;20026;-65
2023/06/16 04:12:24;;;;;;;16.17;13.30;;;;;;;;;;4993110;28;20024;-65
2023/06/16 04:14:50;;;;;;;22.90;13.13;;;;;;;;;;4993125;28;20501;-65
2023/06/16 04:17:17;;;;;;;14.38;11.85;;;;;;;;;;4992807;28;20025;-65
2023/06/16 04:19:45;;;;;;;13.88;12.25;;;;;;;;;;4992606;28;20038;-65
2023/06/16 04:22:12;;;;;;;16.90;14.30;;;;;;;;;;4992972;28;20017;-65
2023/06/16 04:24:38;;;;;;;20.38;14.77;;;;;;;;;;4992869;28;20394;-65
2023/06/16 04:27:05;;;;;;;20.63;14.73;;;;;;;;;;4992966;28;20049;-65
2023/06/16 04:29:32;;;;;;;22.92;15.80;;;;;;;;;;4992859;28;20394;-65
2023/06/16 04:32:00;;;;;;;21.65;16.08;;;;;;;;;;4992838;28;20022;-65
2023/06/16 04:34:31;;;;;;;21.42;16.65;;;;;;;;;;4992723;28;20084;-65
2023/06/16 04:36:57;;;;;;;;;;;;;;;;;;4993178;28;20025;-65
2023/06/16 04:39:24;;;;;;;14.15;12.65;;;;;;;;;;4992704;28;20290;-65
2023/06/16 04:41:50;;;;;;;22.52;13.15;;;;;;;;;;4993545;28;20018;-65
2023/06/16 04:44:17;;;;;;;17.85;13.52;;;;;;;;;;4996881;28;20030;-65
2023/06/16 04:46:44;;;;;;;16.42;12.50;;;;;;;;;;4996738;28;20022;-65
2023/06/16 04:49:10;;;;;;;18.30;12.63;;;;;;;;;;4996252;28;20027;-65
2023/06/16 04:51:37;;;;;;;15.20;12.35;;;;;;;;;;4996650;28;20046;-65
2023/06/16 04:54:03;;;;;;;17.75;12.30;;;;;;;;;;4996619;28;20027;-65
2023/06/16 04:56:29;;;;;;;16.05;12.10;;;;;;;;;;4996374;28;20034;-65
2023/06/16 04:58:56;;;;;;;17.40;12.32;;;;;;;;;;4996726;28;20472;-65
2023/06/16 05:01:26;;;;;;;13.45;12.00;;;;;;;;;;4996803;28;20034;-65
2023/06/16 05:03:53;;;;;;;17.30;12.47;;;;;;;;;;4996368;28;20495;-65
2023/06/16 05:06:19;;;;;;;20.70;14.15;;;;;;;;;;4996324;28;20406;-65
2023/06/16 05:08:45;;;;;;;17.75;12.98;;;;;;;;;;4996658;28;20028;-65
2023/06/16 05:11:12;;;;;;;19.83;13.30;;;;;;;;;;4996263;28;20026;-65
2023/06/16 05:13:38;;;;;;;19.08;13.45;;;;;;;;;;4996600;28;20031;-65
2023/06/16 05:16:05;;;;;;;16.30;12.98;;;;;;;;;;4996185;28;20521;-65
2023/06/16 05:18:31;;;;;;;20.73;13.18;;;;;;;;;;4995777;28;20368;-65
2023/06/16 05:20:58;;;;;;;16.77;12.13;;;;;;;;;;4996100;28;20483;-65
2023/06/16 05:23:24;;;;;;;20.63;13.65;;;;;;;;;;4996106;28;20392;-65
2023/06/16 05:25:50;;;;;;;17.48;13.35;;;;;;;;;;4996336;28;20022;-65
2023/06/16 05:28:16;;;;;;;19.13;12.93;;;;;;;;;;4996098;28;20079;-65
2023/06/16 05:30:43;;;;;;;16.67;13.68;;;;;;;;;;4996185;28;20037;-65
2023/06/16 05:33:09;;;;;;;21.98;12.57;;;;;;;;;;4994511;28;20018;-65
2023/06/16 05:35:35;;;;;;;17.65;12.65;;;;;;;;;;4996094;28;20037;-65
2023/06/16 05:38:02;;;;;;;16.15;12.27;;;;;;;;;;4995629;28;20402;-65
2023/06/16 05:40:28;;;;;;;18.48;12.95;;;;;;;;;;4995646;28;20480;-64
2023/06/16 05:42:54;;;;;;;13.40;11.55;;;;;;;;;;4995713;28;20022;-65
2023/06/16 05:45:21;;;;;;;19.88;13.50;;;;;;;;;;4995862;28;20038;-67
2023/06/16 05:47:47;;;;;;;17.30;12.95;;;;;;;;;;4995293;28;20380;-65
2023/06/16 05:50:13;;;;;;;17.23;12.45;;;;;;;;;;4995523;28;20034;-66
2023/06/16 05:52:40;;;;;;;17.55;12.63;;;;;;;;;;4995328;28;20046;-66
2023/06/16 05:55:06;;;;;;;16.10;13.52;;;;;;;;;;4994656;28;20525;-67
2023/06/16 05:57:33;;;;;;;18.50;13.52;;;;;;;;;;4995378;28;20027;-65
2023/06/16 05:59:59;;;;;;;16.67;13.13;;;;;;;;;;4995255;28;20475;-66
2023/06/16 06:02:25;;;;;;;18.10;12.27;;;;;;;;;;4995169;28;20088;-66
2023/06/16 06:04:52;;;;;;;14.50;11.95;;;;;;;;;;4995348;28;20015;-66
2023/06/16 06:07:18;;;;;;;16.45;12.63;;;;;;;;;;4995217;28;20395;-66
2023/06/16 06:09:45;;;;;;;17.25;12.10;;;;;;;;;;4995530;28;20069;-66
2023/06/16 06:12:11;;;;;;;14.35;12.43;;;;;;;;;;4995290;28;20046;-66
2023/06/16 06:14:38;;;;;;;17.98;11.70;;;;;;;;;;4995131;28;20064;-66
2023/06/16 06:17:04;;;;;;;18.42;13.30;;;;;;;;;;4994887;28;20026;-66
2023/06/16 06:19:31;;;;;;;15.35;13.32;;;;;;;;;;4995099;28;20034;-66
2023/06/16 06:21:57;;;;;;;20.65;13.70;;;;;;;;;;4994974;28;20026;-66
2023/06/16 06:24:23;;;;;;;17.92;13.25;;;;;;;;;;4995361;28;20025;-66
2023/06/16 06:26:49;;;;;;;18.70;12.88;;;;;;;;;;4979760;28;20555;-66
2023/06/16 06:29:16;;;;;;;18.25;13.98;;;;;;;;;;4959406;28;20027;-66
2023/06/16 06:31:42;;;;;;;15.77;13.50;;;;;;;;;;4960742;28;20029;-66
2023/06/16 06:34:08;;;;;;;21.42;14.32;;;;;;;;;;4966013;28;20435;-65
2023/06/16 06:36:39;;;;;;;18.55;14.20;;;;;;;;;;4955295;29;20031;-67
2023/06/16 06:39:05;;;;;;;17.25;13.50;;;;;;;;;;4967016;28;20031;-67
2023/06/16 06:41:32;;;;;;;19.42;14.85;;;;;;;;;;4967722;28;20034;-66
2023/06/16 06:43:58;;;;;;;19.25;14.10;;;;;;;;;;4974770;28;20023;-66
2023/06/16 06:46:25;;;;;;;19.58;15.30;;;;;;;;;;4974688;28;20034;-66
2023/06/16 06:48:51;;;;;;;18.20;16.08;;;;;;;;;;4975219;28;20019;-66
2023/06/16 06:51:17;;;;;;;20.55;15.02;;;;;;;;;;4974609;28;20047;-66
2023/06/16 06:53:44;;;;;;;19.17;14.35;;;;;;;;;;4974425;28;20414;-66
2023/06/16 06:56:10;;;;;;;15.45;13.65;;;;;;;;;;4988830;28;20478;-66
2023/06/16 06:58:36;;;;;;;14.80;12.93;;;;;;;;;;4993643;28;20027;-65
2023/06/16 07:01:03;;;;;;;13.63;12.05;;;;;;;;;;4994542;28;20034;-66
2023/06/16 07:03:29;;;;;;;14.95;12.82;;;;;;;;;;4994143;28;20087;-66
2023/06/16 07:05:56;;;;;;;16.63;13.10;;;;;;;;;;4993699;28;20026;-66
2023/06/16 07:08:22;;;;;;;13.00;11.30;;;;;;;;;;4979843;28;20537;-66
2023/06/16 07:10:48;;;;;;;13.25;10.85;;;;;;;;;;4974592;28;20022;-66
2023/06/16 07:13:15;;;;;;;13.45;10.55;;;;;;;;;;4970389;28;20443;-67
2023/06/16 07:15:41;;;;;;;13.35;10.98;;;;;;;;;;4972562;28;20546;-66
2023/06/16 07:18:08;;;;;;;12.23;9.32;;;;;;;;;;4973095;28;20065;-66
2023/06/16 07:20:34;;;;;;;11.77;9.75;;;;;;;;;;4973110;28;20045;-66
2023/06/16 07:23:00;;;;;;;12.60;8.65;;;;;;;;;;4973469;28;20402;-66
2023/06/16 07:25:28;;;;;;;10.82;9.10;;;;;;;;;;4973589;28;20035;-66
2023/06/16 07:27:55;;;;;;;10.02;8.30;;;;;;;;;;4953858;28;20491;-66
2023/06/16 07:30:21;;;;;;;10.98;9.07;;;;;;;;;;4954224;29;20407;-66
2023/06/16 07:32:49;;;;;;;10.75;9.05;;;;;;;;;;4970976;28;20035;-66
2023/06/16 07:35:15;;;;;;;11.57;9.05;;;;;;;;;;4972983;28;20033;-67
2023/06/16 07:37:42;;;;;;;10.27;8.25;;;;;;;;;;4973503;28;20031;-67
2023/06/16 07:40:13;;;;;;;8.98;8.07;;;;;;;;;;4973259;28;20514;-67
2023/06/16 07:42:39;;;;;;;10.27;9.20;;;;;;;;;;4972907;28;20093;-67
2023/06/16 07:45:06;;;;;;;10.02;8.80;;;;;;;;;;4973460;28;20023;-67
2023/06/16 07:47:32;;;;;;;8.55;7.68;;;;;;;;;;4973933;28;20035;-65
2023/06/16 07:49:58;;;;;;;11.32;8.43;;;;;;;;;;4973872;28;20037;-65
2023/06/16 07:52:25;;;;;;;11.13;8.57;;;;;;;;;;4964335;28;20558;-65
2023/06/16 07:54:51;;;;;;;8.18;7.38;;;;;;;;;;4961032;28;20022;-64
2023/06/16 07:57:18;;;;;;;8.07;7.38;;;;;;;;;;4992327;28;20037;-65
2023/06/16 07:59:44;;;;;;;8.55;7.75;;;;;;;;;;4993065;28;20049;-65
2023/06/16 08:02:10;;;;;;;13.32;8.30;;;;;;;;;;4992223;28;20034;-65
2023/06/16 08:04:37;;;;;;;8.93;8.02;;;;;;;;;;4992620;28;20031;-65
2023/06/16 08:07:03;;;;;;;7.90;7.10;;;;;;;;;;4992594;28;20026;-65
2023/06/16 08:09:29;;;;;;;10.20;6.95;;;;;;;;;;4953192;29;20550;-65
2023/06/16 08:11:56;;;;;;;9.23;7.40;;;;;;;;;;4953705;29;20025;-65
2023/06/16 08:14:22;;;;;;;8.68;7.47;;;;;;;;;;4953459;28;20023;-65
2023/06/16 08:16:49;;;;;;;8.07;7.22;;;;;;;;;;4953019;28;20066;-65
2023/06/16 08:19:15;;;;;;;7.93;7.13;;;;;;;;;;4953466;29;20027;-65
2023/06/16 08:21:42;;;;;;;8.10;7.35;;;;;;;;;;4954149;29;20431;-65
2023/06/16 08:24:08;;;;;;;8.25;7.45;;;;;;;;;;4953420;29;20081;-65
2023/06/16 08:26:34;;;;;;;10.23;7.50;;;;;;;;;;4953734;29;20484;-65
2023/06/16 08:29:00;;;;;;;28.85;8.77;;;;;;;;;;4953801;29;20035;-65
2023/06/16 08:31:28;;;;;;;9.70;7.30;;;;;;;;;;4953168;29;20041;-65
2023/06/16 08:33:55;;;;;;;8.68;6.85;;;;;;;;;;4954044;28;20041;-65
2023/06/16 08:36:23;;;;;;;10.00;7.07;;;;;;;;;;4953995;28;20031;-65
2023/06/16 08:38:49;;;;;;;8.43;7.30;;;;;;;;;;4953399;29;20570;-65
2023/06/16 08:41:18;;;;;;;8.00;6.65;;;;;;;;;;4952771;28;20047;-65
2023/06/16 08:43:44;;;;;;;7.30;6.57;;;;;;;;;;4953807;29;20485;-66
2023/06/16 08:46:11;;;;;;;7.22;6.53;;;;;;;;;;4953387;29;20034;-65
2023/06/16 08:48:37;;;;;;;8.57;5.95;;;;;;;;;;4953932;29;20035;-65
2023/06/16 08:51:04;;;;;;;9.10;5.60;;;;;;;;;;4953364;28;20039;-66
2023/06/16 08:53:33;;;;;;;6.90;6.20;;;;;;;;;;4953966;29;20031;-65
2023/06/16 08:56:00;;;;;;;6.47;5.63;;;;;;;;;;4978030;28;20372;-66
2023/06/16 08:58:27;;;;;;;7.10;5.65;;;;;;;;;;4992199;28;20029;-65
2023/06/16 09:00:53;;;;;;;10.43;5.30;;;;;;;;;;4992232;28;20039;-66
2023/06/16 09:03:21;;;;;;;5.75;5.25;;;;;;;;;;4991367;28;20049;-66
2023/06/16 09:05:48;;;;;;;5.22;4.70;;;;;;;;;;4992087;28;20037;-65
2023/06/16 09:08:15;;;;;;;6.20;4.93;;;;;;;;;;4982717;28;20030;-66
2023/06/16 09:10:42;;;;;;;6.15;5.25;;;;;;;;;;4972617;28;20019;-66
2023/06/16 09:13:08;;;;;;;6.13;5.40;;;;;;;;;;4972537;28;20031;-66
2023/06/16 09:15:35;;;;;;;5.80;5.30;;;;;;;;;;4972519;28;20018;-66
2023/06/16 09:18:09;;;;;;;6.18;5.57;;;;;;;;;;4971991;28;20027;-65
2023/06/16 09:20:41;;;;;;;5.97;4.70;;;;;;;;;;4972688;28;20084;-66
2023/06/16 09:23:08;;;;;;;6.40;5.28;;;;;;;;;;4972203;28;20033;-66
2023/06/16 09:25:35;;;;;;;5.50;5.00;;;;;;;;;;4972282;28;20376;-66
2023/06/16 09:28:09;;;;;;;5.97;4.72;;;;;;;;;;4973574;28;20076;-66
2023/06/16 09:30:36;;;;;;;6.40;5.05;;;;;;;;;;4975605;28;20026;-66
2023/06/16 09:33:02;;;;;;;5.75;5.18;;;;;;;;;;4976161;28;20031;-66
2023/06/16 09:35:30;;;;;;;7.53;5.00;;;;;;;;;;4976260;28;20026;-66
2023/06/16 09:37:57;;;;;;;5.43;4.93;;;;;;;;;;4974646;28;20468;-66
2023/06/16 09:40:27;;;;;;;6.72;4.88;;;;;;;;;;4975142;28;20419;-66
2023/06/16 09:42:57;;;;;;;5.57;4.72;;;;;;;;;;4976049;28;20029;-66
2023/06/16 09:45:26;;;;;;;5.95;5.15;;;;;;;;;;4976225;28;20035;-66
2023/06/16 09:47:52;;;;;;;7.75;5.28;;;;;;;;;;4975810;28;20025;-66
2023/06/16 09:50:23;;;;;;;5.93;5.32;;;;;;;;;;4975997;28;20033;-66
2023/06/16 09:52:49;;;;;;;5.72;4.75;;;;;;;;;;4974887;28;20058;-66
2023/06/16 09:55:16;;;;;;;6.57;5.25;;;;;;;;;;4982022;28;20398;-66
2023/06/16 09:57:43;;;;;;;10.88;5.10;;;;;;;;;;4995189;28;20502;-66
2023/06/16 10:00:16;;;;;;;5.63;4.38;;;;;;;;;;4995171;28;20034;-66
2023/06/16 10:02:43;;;;;;;5.40;4.90;;;;;;;;;;4994748;28;20026;-66
2023/06/16 10:05:10;;;;;;;7.20;4.90;;;;;;;;;;4995017;28;20033;-66
2023/06/16 10:07:39;;;;;;;5.20;4.65;;;;;;;;;;4990534;28;20027;-66
2023/06/16 10:10:08;;;;;;;6.47;4.78;;;;;;;;;;4975542;28;20033;-66
2023/06/16 10:12:36;;;;;;;5.38;4.88;;;;;;;;;;4975395;28;20092;-66
2023/06/16 10:15:03;;;;;;;9.38;5.05;;;;;;;;;;4975502;28;20181;-66
2023/06/16 10:17:34;;;;;;;6.30;4.75;;;;;;;;;;4975308;28;20033;-66
2023/06/16 10:20:05;;;;;;;7.53;5.00;;;;;;;;;;4975311;28;20484;-65
2023/06/16 10:22:31;;;;;;;7.38;4.63;;;;;;;;;;4975104;28;20019;-66
2023/06/16 10:25:00;;;;;;;9.05;4.40;;;;;;;;;;4975349;28;20030;-65
2023/06/16 10:27:27;;;;;;;4.88;4.40;;;;;;;;;;4975106;28;20045;-66
2023/06/16 10:29:54;;;;;;;5.07;4.28;;;;;;;;;;4974963;28;20041;-66
2023/06/16 10:32:20;;;;;;;7.82;4.50;;;;;;;;;;4975498;28;20069;-66
2023/06/16 10:34:51;;;;;;;7.30;4.57;;;;;;;;;;4975099;28;20030;-66
2023/06/16 10:37:18;;;;;;;6.65;4.63;;;;;;;;;;4974624;28;20427;-66
2023/06/16 10:39:46;;;;;;;5.30;4.38;;;;;;;;;;4973992;28;20041;-66
2023/06/16 10:42:13;;;;;;;6.10;4.45;;;;;;;;;;4974758;28;20027;-66
2023/06/16 10:44:40;;;;;;;4.82;4.32;;;;;;;;;;4974910;28;20074;-66
2023/06/16 10:47:11;;;;;;;4.75;4.35;;;;;;;;;;4974730;28;20023;-66
2023/06/16 10:49:46;;;;;;;4.65;4.15;;;;;;;;;;4974721;28;20019;-65
2023/06/16 10:52:33;;;;;;;5.32;4.82;;;;;;;;;;4974525;28;20035;-65
2023/06/16 10:55:15;;;;;;;5.63;4.28;;;;;;;;;;4978960;28;20026;-66
2023/06/16 10:57:43;;;;;;;6.85;4.50;;;;;;;;;;4993990;28;20040;-66
2023/06/16 11:00:14;;;;;;;4.45;4.05;;;;;;;;;;4994019;28;20038;-66
2023/06/16 11:02:54;;;;;;;7.75;4.28;;;;;;;;;;4994170;28;20021;-66
2023/06/16 11:05:22;;;;;;;5.18;4.50;;;;;;;;;;4993699;28;20034;-66
2023/06/16 11:08:05;;;;;;;5.10;4.60;;;;;;;;;;4987521;28;20019;-66
2023/06/16 11:10:47;;;;;;;6.10;4.68;;;;;;;;;;4974384;28;20080;-66
2023/06/16 11:13:14;;;;;;;4.72;4.22;;;;;;;;;;4974036;28;20023;-66
2023/06/16 11:15:42;;;;;;;5.53;4.63;;;;;;;;;;4973008;28;20081;-66
2023/06/16 11:18:09;;;;;;;5.10;4.13;;;;;;;;;;4974477;28;20019;-65
2023/06/16 11:20:36;;;;;;;10.05;4.30;;;;;;;;;;4973910;28;20045;-66
2023/06/16 11:23:06;;;;;;;6.85;3.95;;;;;;;;;;4974451;28;20031;-66
2023/06/16 11:25:33;;;;;;;5.00;4.22;;;;;;;;;;4974028;28;20027;-67
2023/06/16 11:28:00;;;;;;;4.72;4.28;;;;;;;;;;4974466;28;20022;-66
2023/06/16 11:30:28;;;;;;;8.75;4.57;;;;;;;;;;4973351;28;20034;-65
2023/06/16 11:32:57;;;;;;;5.20;4.20;;;;;;;;;;4974171;28;20418;-65
2023/06/16 11:35:30;;;;;;;4.53;4.00;;;;;;;;;;4973548;28;20475;-65
2023/06/16 11:37:56;;;;;;;6.82;4.68;;;;;;;;;;4973717;28;20045;-64
2023/06/16 11:40:24;;;;;;;5.15;4.65;;;;;;;;;;4973743;28;20042;-65
2023/06/16 11:43:00;;;;;;;4.80;4.40;;;;;;;;;;4973029;28;20399;-66
2023/06/16 11:45:27;;;;;;;5.03;3.90;;;;;;;;;;4973739;28;20026;-66
2023/06/16 11:47:56;;;;;;;4.90;4.40;;;;;;;;;;4957298;28;20026;-65
2023/06/16 11:50:23;;;;;;;5.53;4.32;;;;;;;;;;4954003;28;20492;-65
2023/06/16 11:52:50;;;;;;;4.70;4.28;;;;;;;;;;4953276;28;20039;-65
2023/06/16 11:55:16;;;;;;;4.68;4.28;;;;;;;;;;4967846;28;20029;-64
2023/06/16 11:57:43;;;;;;;4.95;4.47;;;;;;;;;;4993081;28;20029;-65
2023/06/16 12:00:11;;;;;;;5.80;4.38;;;;;;;;;;4974160;28;20037;-65
2023/06/16 12:02:38;;;;;;;7.18;4.40;;;;;;;;;;4973080;28;20499;-66
2023/06/16 12:05:17;;;;;;;4.72;4.07;;;;;;;;;;4972881;28;20033;-65
2023/06/16 12:07:43;;;;;;;4.95;4.45;;;;;;;;;;4973366;28;20092;-65
2023/06/16 12:10:09;;;;;;;6.70;4.82;;;;;;;;;;4973100;28;20053;-65
2023/06/16 12:12:38;;;;;;;6.25;4.35;;;;;;;;;;4973150;28;20034;-65
2023/06/16 12:15:04;;;;;;;5.05;4.55;;;;;;;;;;4972998;28;20074;-65
2023/06/16 12:17:33;;;;;;;6.40;4.60;;;;;;;;;;4973025;28;20030;-65
2023/06/16 12:20:03;;;;;;;6.15;4.93;;;;;;;;;;4973018;28;20525;-66
2023/06/16 12:22:39;;;;;;;8.13;5.40;;;;;;;;;;4973169;28;20019;-65
2023/06/16 12:25:15;;;;;;;6.93;4.85;;;;;;;;;;4971779;28;20034;-65
2023/06/16 12:27:45;;;;;;;6.05;4.80;;;;;;;;;;4963926;28;20507;-65
2023/06/16 12:30:11;;;;;;;;;;;;;;;;;;4970016;28;20034;-65
2023/06/16 12:32:37;;;;;;;5.80;4.35;;;;;;;;;;4972406;28;20018;-65
2023/06/16 12:35:05;;;;;;;4.88;4.35;;;;;;;;;;4968699;28;20027;-65
2023/06/16 12:37:31;;;;;;;5.72;4.15;;;;;;;;;;4960312;28;20391;-65
2023/06/16 12:39:59;;;;;;;5.10;4.22;;;;;;;;;;4961124;28;20034;-66
2023/06/16 12:42:27;;;;;;;4.28;3.88;;;;;;;;;;4966163;28;20019;-66
2023/06/16 12:44:55;;;;;;;4.57;3.97;;;;;;;;;;4960899;28;20037;-65
2023/06/16 12:47:22;;;;;;;6.00;3.97;;;;;;;;;;4952945;28;20051;-66
2023/06/16 12:49:50;;;;;;;4.40;4.00;;;;;;;;;;4965239;28;20035;-65
2023/06/16 12:52:19;;;;;;;4.20;3.80;;;;;;;;;;4972071;28;20566;-67
2023/06/16 12:54:46;;;;;;;4.55;4.10;;;;;;;;;;4974372;28;20035;-65
2023/06/16 12:57:12;;;;;;;5.47;3.80;;;;;;;;;;4991532;28;20023;-65
2023/06/16 12:59:39;;;;;;;6.20;3.80;;;;;;;;;;4981119;28;20836;-65
2023/06/16 13:02:06;;;;;;;4.72;3.97;;;;;;;;;;4971717;28;20023;-65
2023/06/16 13:04:32;;;;;;;4.47;4.07;;;;;;;;;;4975797;28;20037;-66
2023/06/16 13:06:58;;;;;;;4.72;4.30;;;;;;;;;;4976803;28;20035;-65
2023/06/16 13:09:24;;;;;;;4.10;3.70;;;;;;;;;;4975943;28;20399;-66
2023/06/16 13:11:53;;;;;;;5.70;4.10;;;;;;;;;;4975091;28;20035;-66
2023/06/16 13:14:19;;;;;;;4.50;4.10;;;;;;;;;;4971891;28;20407;-65
2023/06/16 13:16:46;;;;;;;4.30;3.92;;;;;;;;;;4956526;28;20038;-65
2023/06/16 13:19:12;;;;;;;7.30;4.30;;;;;;;;;;4974038;28;20069;-66
2023/06/16 13:21:39;;;;;;;4.25;3.88;;;;;;;;;;4975958;28;20570;-65
2023/06/16 13:24:05;;;;;;;5.50;4.07;;;;;;;;;;4976120;28;20105;-65
2023/06/16 13:26:31;;;;;;;5.57;4.20;;;;;;;;;;4976194;28;20119;-65
2023/06/16 13:28:57;;;;;;;6.30;3.90;;;;;;;;;;4974175;28;20411;-66
2023/06/16 13:31:24;;;;;;;4.65;4.10;;;;;;;;;;4975413;28;20035;-65
2023/06/16 13:33:50;;;;;;;6.53;3.97;;;;;;;;;;4976153;28;20031;-65
2023/06/16 13:36:18;;;;;;;5.95;4.05;;;;;;;;;;4974728;28;20039;-66
2023/06/16 13:38:45;;;;;;;8.75;4.07;;;;;;;;;;4975571;28;20031;-65
2023/06/16 13:41:12;;;;;;;5.80;4.05;;;;;;;;;;4975339;28;20039;-65
2023/06/16 13:43:39;;;;;;;4.72;4.22;;;;;;;;;;4975993;28;20027;-65
2023/06/16 13:46:06;;;;;;;6.93;4.32;;;;;;;;;;4968841;28;20023;-66
2023/06/16 13:48:32;;;;;;;5.20;4.32;;;;;;;;;;4966588;28;20034;-65
2023/06/16 13:50:58;;;;;;;5.15;4.10;;;;;;;;;;4960321;28;20028;-66
2023/06/16 13:53:25;;;;;;;4.50;4.07;;;;;;;;;;4971955;28;20034;-65
2023/06/16 13:55:52;;;;;;;5.22;4.35;;;;;;;;;;4967974;28;20512;-65
2023/06/16 13:58:18;;;;;;;4.35;3.95;;;;;;;;;;4955811;29;20518;-65
2023/06/16 14:00:45;;;;;;;5.78;4.28;;;;;;;;;;4956929;28;20043;-65
2023/06/16 14:03:12;;;;;;;5.20;4.30;;;;;;;;;;4974943;28;20402;-65
2023/06/16 14:05:41;;;;;;;4.88;4.15;;;;;;;;;;4974781;28;20031;-65
2023/06/16 14:08:08;;;;;;;7.63;4.57;;;;;;;;;;4975053;28;20030;-65
2023/06/16 14:10:34;;;;;;;6.22;4.63;;;;;;;;;;4970493;28;20563;-65
2023/06/16 14:13:00;;;;;;;6.53;4.55;;;;;;;;;;4955903;29;20053;-65
2023/06/16 14:15:31;;;;;;;7.97;4.40;;;;;;;;;;4958583;28;20041;-65
2023/06/16 14:17:57;;;;;;;6.53;4.60;;;;;;;;;;4955566;28;20086;-65
2023/06/16 14:20:24;;;;;;;5.20;4.53;;;;;;;;;;4960187;28;20068;-65
2023/06/16 14:22:50;;;;;;;5.00;4.50;;;;;;;;;;4955847;29;20029;-65
2023/06/16 14:25:16;;;;;;;4.93;4.20;;;;;;;;;;4968779;28;20088;-65
2023/06/16 14:27:43;;;;;;;6.43;4.63;;;;;;;;;;4974229;28;20022;-65
2023/06/16 14:30:10;;;;;;;5.80;5.07;;;;;;;;;;4974561;28;20061;-64
2023/06/16 14:32:37;;;;;;;11.32;4.65;;;;;;;;;;4975140;28;20030;-65